createdAt,value
2018-05-02T00:01:51.038Z,5.15
2018-05-02T00:07:08.864Z,5.02
2018-05-02T00:09:53.771Z,5.07
2018-05-02T00:12:21.322Z,5.11
2018-05-02T00:14:48.842Z,5.26
2018-05-02T00:17:16.401Z,5.18
2018-05-02T00:19:44.546Z,5.24
2018-05-02T00:22:12.106Z,5.13
2018-05-02T00:24:39.634Z,5.20
2018-05-02T00:27:07.186Z,4.83
2018-05-02T00:29:35.342Z,4.65
2018-05-02T00:32:02.918Z,4.48
2018-05-02T00:34:30.465Z,4.63
2018-05-02T00:36:58.021Z,4.68
2018-05-02T00:39:25.545Z,4.86
2018-05-02T00:41:53.124Z,4.78
2018-05-02T00:44:20.654Z,4.82
2018-05-02T00:46:48.207Z,4.84
2018-05-02T00:49:17.510Z,4.85
2018-05-02T00:51:45.083Z,4.78
2018-05-02T00:54:12.607Z,4.59
2018-05-02T00:56:40.161Z,4.70
2018-05-02T00:59:07.713Z,4.42
2018-05-02T01:01:35.766Z,4.53
2018-05-02T01:04:03.341Z,4.51
2018-05-02T01:06:30.874Z,4.61
2018-05-02T01:08:58.423Z,4.43
2018-05-02T01:11:26.066Z,4.27
2018-05-02T01:13:53.649Z,4.39
2018-05-02T01:16:21.180Z,4.41
2018-05-02T01:18:48.729Z,4.50
2018-05-02T01:21:16.259Z,4.42
2018-05-02T01:23:43.806Z,4.54
2018-05-02T01:26:11.366Z,4.45
2018-05-02T01:28:38.941Z,4.62
2018-05-02T01:31:06.465Z,4.66
2018-05-02T01:33:34.097Z,4.57
2018-05-02T01:36:01.606Z,4.58
2018-05-02T01:38:29.175Z,4.58
2018-05-02T01:40:56.705Z,4.52
2018-05-02T01:43:24.330Z,4.35
2018-05-02T01:45:51.862Z,4.48
2018-05-02T01:48:19.401Z,4.23
2018-05-02T01:50:46.912Z,4.35
2018-05-02T01:53:14.463Z,4.45
2018-05-02T01:55:41.983Z,4.34
2018-05-02T01:58:09.536Z,4.34
2018-05-02T02:00:37.074Z,4.42
2018-05-02T02:03:04.646Z,4.37
2018-05-02T02:05:32.275Z,4.24
2018-05-02T02:07:59.830Z,4.17
2018-05-02T02:10:27.351Z,4.07
2018-05-02T02:12:54.942Z,4.03
2018-05-02T02:15:22.481Z,4.12
2018-05-02T02:17:50.035Z,3.86
2018-05-02T02:20:17.592Z,3.98
2018-05-02T02:22:45.140Z,3.91
2018-05-02T02:25:12.673Z,3.98
2018-05-02T02:27:40.249Z,4.06
2018-05-02T02:30:07.828Z,3.96
2018-05-02T02:32:36.321Z,3.66
2018-05-02T02:35:03.903Z,3.72
2018-05-02T02:37:31.425Z,3.68
2018-05-02T02:39:59.309Z,3.82
2018-05-02T02:42:26.835Z,3.70
2018-05-02T02:44:54.415Z,4.00
2018-05-02T02:47:21.965Z,3.87
2018-05-02T02:49:49.517Z,3.72
2018-05-02T02:52:17.041Z,3.87
2018-05-02T02:54:44.593Z,3.84
2018-05-02T02:57:12.123Z,3.81
2018-05-02T02:59:39.920Z,3.84
2018-05-02T03:02:07.455Z,3.53
2018-05-02T03:04:35.032Z,3.47
2018-05-02T03:07:02.605Z,3.60
2018-05-02T03:09:30.163Z,3.75
2018-05-02T03:11:57.702Z,3.75
2018-05-02T03:14:25.770Z,3.74
2018-05-02T03:16:53.393Z,3.60
2018-05-02T03:19:20.995Z,3.71
2018-05-02T03:21:48.521Z,3.79
2018-05-02T03:24:16.071Z,3.69
2018-05-02T03:26:43.598Z,3.59
2018-05-02T03:29:11.156Z,3.60
2018-05-02T03:31:38.682Z,3.54
2018-05-02T03:34:06.460Z,3.67
2018-05-02T03:36:34.014Z,3.58
2018-05-02T03:39:01.562Z,3.54
2018-05-02T03:41:29.090Z,3.54
2018-05-02T03:43:56.665Z,3.49
2018-05-02T03:46:24.194Z,3.26
2018-05-02T03:48:51.741Z,3.32
2018-05-02T03:51:19.273Z,3.26
2018-05-02T03:53:46.824Z,3.21
2018-05-02T03:56:14.350Z,3.33
2018-05-02T03:58:41.947Z,3.26
2018-05-02T04:01:21.158Z,3.23
2018-05-02T04:04:00.622Z,3.32
2018-05-02T04:06:39.859Z,3.40
2018-05-02T04:09:07.437Z,3.28
2018-05-02T04:11:36.562Z,3.41
2018-05-02T04:14:04.196Z,3.26
2018-05-02T04:16:31.744Z,3.29
2018-05-02T04:18:59.294Z,3.22
2018-05-02T04:21:26.822Z,3.13
2018-05-02T04:23:54.410Z,3.14
2018-05-02T04:26:21.953Z,3.08
2018-05-02T04:28:49.489Z,3.17
2018-05-02T04:31:17.057Z,3.18
2018-05-02T04:33:44.658Z,3.14
2018-05-02T04:36:12.215Z,3.09
2018-05-02T04:38:39.743Z,3.24
2018-05-02T04:41:07.342Z,3.21
2018-05-02T04:43:34.869Z,3.18
2018-05-02T04:46:02.447Z,3.33
2018-05-02T04:48:29.975Z,3.31
2018-05-02T04:50:57.577Z,3.23
2018-05-02T04:53:25.102Z,3.33
2018-05-02T04:55:53.249Z,3.35
2018-05-02T04:58:20.954Z,3.29
2018-05-02T05:00:48.511Z,3.29
2018-05-02T05:03:16.039Z,3.56
2018-05-02T05:05:43.589Z,3.52
2018-05-02T05:08:11.237Z,3.54
2018-05-02T05:10:38.892Z,3.56
2018-05-02T05:13:09.614Z,3.53
2018-05-02T05:15:37.174Z,3.53
2018-05-02T05:18:06.127Z,3.62
2018-05-02T05:20:33.694Z,3.56
2018-05-02T05:23:01.279Z,3.46
2018-05-02T05:25:28.839Z,3.70
2018-05-02T05:27:56.385Z,3.76
2018-05-02T05:30:24.023Z,3.65
2018-05-02T05:32:51.569Z,3.83
2018-05-02T05:35:19.227Z,4.01
2018-05-02T05:37:46.718Z,4.13
2018-05-02T05:40:14.275Z,4.01
2018-05-02T05:42:41.842Z,4.14
2018-05-02T05:45:09.395Z,4.38
2018-05-02T05:47:36.929Z,4.60
2018-05-02T05:50:04.506Z,4.67
2018-05-02T05:52:32.088Z,4.75
2018-05-02T05:54:59.633Z,4.88
2018-05-02T05:57:27.139Z,4.84
2018-05-02T05:59:54.838Z,4.80
2018-05-02T06:02:22.391Z,5.13
2018-05-02T06:04:49.964Z,5.13
2018-05-02T06:07:17.497Z,5.38
2018-05-02T06:09:45.093Z,5.50
2018-05-02T06:12:12.702Z,5.21
2018-05-02T06:14:40.230Z,5.30
2018-05-02T06:17:07.802Z,5.28
2018-05-02T06:19:35.330Z,5.57
2018-05-02T06:22:02.887Z,5.60
2018-05-02T06:24:30.463Z,5.67
2018-05-02T06:26:58.115Z,5.68
2018-05-02T06:29:28.115Z,5.74
2018-05-02T06:31:55.829Z,6.10
2018-05-02T06:34:23.371Z,6.20
2018-05-02T06:36:50.949Z,6.54
2018-05-02T06:39:18.503Z,6.49
2018-05-02T06:41:46.053Z,6.70
2018-05-02T06:44:13.581Z,6.86
2018-05-02T06:46:41.132Z,6.89
2018-05-02T06:49:08.747Z,6.91
2018-05-02T06:51:37.186Z,6.93
2018-05-02T06:54:04.715Z,7.05
2018-05-02T06:56:32.267Z,7.07
2018-05-02T06:58:59.819Z,7.07
2018-05-02T07:01:27.376Z,7.14
2018-05-02T07:03:54.898Z,7.27
2018-05-02T07:06:22.473Z,7.42
2018-05-02T07:08:50.002Z,7.61
2018-05-02T07:11:17.551Z,7.70
2018-05-02T07:13:45.082Z,7.84
2018-05-02T07:16:12.635Z,8.01
2018-05-02T07:18:40.256Z,8.02
2018-05-02T07:21:07.863Z,8.08
2018-05-02T07:23:35.390Z,8.29
2018-05-02T07:26:02.965Z,8.40
2018-05-02T07:28:30.494Z,8.50
2018-05-02T07:30:58.049Z,8.58
2018-05-02T07:33:25.574Z,8.69
2018-05-02T07:35:53.150Z,8.81
2018-05-02T07:38:20.680Z,8.98
2018-05-02T07:40:48.237Z,9.04
2018-05-02T07:43:15.759Z,9.08
2018-05-02T07:45:43.290Z,9.24
2018-05-02T07:48:10.838Z,9.49
2018-05-02T07:50:38.371Z,9.60
2018-05-02T07:53:05.919Z,9.74
2018-05-02T07:55:33.443Z,9.95
2018-05-02T07:58:01.009Z,10.10
2018-05-02T08:00:28.551Z,10.41
2018-05-02T08:02:56.213Z,10.51
2018-05-02T08:05:23.762Z,10.56
2018-05-02T08:07:51.323Z,10.70
2018-05-02T08:10:18.859Z,10.70
2018-05-02T08:12:46.434Z,10.84
2018-05-02T08:15:13.962Z,11.06
2018-05-02T08:17:41.513Z,11.18
2018-05-02T08:20:09.165Z,11.40
2018-05-02T08:22:36.739Z,11.44
2018-05-02T08:25:04.269Z,11.56
2018-05-02T08:27:31.917Z,11.57
2018-05-02T08:29:59.429Z,11.65
2018-05-02T08:32:27.001Z,11.88
2018-05-02T08:34:54.527Z,11.98
2018-05-02T08:37:22.087Z,12.11
2018-05-02T08:39:49.603Z,12.32
2018-05-02T08:42:17.266Z,12.30
2018-05-02T08:44:44.790Z,12.36
2018-05-02T08:47:12.369Z,12.41
2018-05-02T08:49:39.895Z,12.54
2018-05-02T08:52:07.470Z,12.69
2018-05-02T08:54:35.001Z,12.78
2018-05-02T08:57:02.526Z,12.90
2018-05-02T08:59:30.104Z,13.08
2018-05-02T09:01:57.656Z,13.12
2018-05-02T09:04:25.209Z,13.19
2018-05-02T09:06:52.762Z,13.47
2018-05-02T09:09:20.309Z,13.65
2018-05-02T09:11:47.876Z,13.66
2018-05-02T09:14:15.445Z,13.59
2018-05-02T09:16:42.994Z,13.60
2018-05-02T09:19:10.548Z,13.73
2018-05-02T09:21:38.072Z,13.88
2018-05-02T09:24:05.651Z,13.95
2018-05-02T09:26:33.175Z,13.92
2018-05-02T09:29:00.790Z,13.89
2018-05-02T09:31:28.331Z,14.03
2018-05-02T09:33:55.883Z,14.07
2018-05-02T09:36:23.414Z,14.12
2018-05-02T09:38:50.965Z,14.20
2018-05-02T09:41:18.485Z,14.32
2018-05-02T09:43:46.040Z,14.43
2018-05-02T09:46:13.594Z,14.54
2018-05-02T09:48:41.151Z,14.56
2018-05-02T09:51:09.701Z,14.69
2018-05-02T09:53:37.308Z,14.81
2018-05-02T09:56:04.853Z,14.90
2018-05-02T09:58:32.430Z,14.95
2018-05-02T10:00:59.962Z,15.00
2018-05-02T10:03:27.534Z,15.28
2018-05-02T10:05:55.066Z,15.53
2018-05-02T10:08:22.638Z,15.33
2018-05-02T10:10:50.266Z,15.46
2018-05-02T10:13:18.371Z,15.37
2018-05-02T10:15:45.953Z,15.49
2018-05-02T10:18:13.777Z,15.49
2018-05-02T10:20:41.677Z,15.57
2018-05-02T10:23:10.628Z,15.46
2018-05-02T10:25:38.183Z,15.60
2018-05-02T10:28:05.782Z,15.60
2018-05-02T10:30:33.317Z,15.76
2018-05-02T10:33:00.932Z,15.95
2018-05-02T10:35:28.492Z,15.86
2018-05-02T10:37:56.047Z,16.24
2018-05-02T10:40:23.597Z,16.38
2018-05-02T10:42:51.119Z,16.41
2018-05-02T10:45:18.679Z,16.14
2018-05-02T10:47:46.254Z,15.73
2018-05-02T10:50:13.905Z,15.62
2018-05-02T10:52:41.433Z,15.66
2018-05-02T10:55:08.971Z,15.67
2018-05-02T10:57:36.686Z,15.80
2018-05-02T11:00:04.538Z,16.02
2018-05-02T11:02:32.065Z,16.23
2018-05-02T11:04:59.746Z,16.40
2018-05-02T11:07:27.267Z,16.15
2018-05-02T11:09:54.823Z,16.00
2018-05-02T11:12:28.973Z,16.02
2018-05-02T11:14:56.694Z,16.32
2018-05-02T11:17:24.278Z,16.18
2018-05-02T11:19:51.828Z,16.42
2018-05-02T11:22:19.365Z,16.28
2018-05-02T11:24:46.941Z,16.23
2018-05-02T11:27:14.466Z,16.49
2018-05-02T11:29:42.014Z,16.37
2018-05-02T11:32:10.397Z,16.56
2018-05-02T11:34:38.094Z,16.38
2018-05-02T11:37:06.518Z,15.70
2018-05-02T11:39:34.127Z,15.86
2018-05-02T11:42:04.395Z,16.15
2018-05-02T11:44:36.368Z,16.41
2018-05-02T11:47:07.180Z,16.28
2018-05-02T11:49:37.875Z,16.25
2018-05-02T11:52:05.965Z,16.53
2018-05-02T11:54:33.511Z,16.28
2018-05-02T11:57:01.013Z,15.86
2018-05-02T11:59:28.590Z,15.76
2018-05-02T12:01:56.119Z,15.98
2018-05-02T12:04:23.645Z,15.77
2018-05-02T12:06:51.219Z,15.75
2018-05-02T12:09:21.493Z,15.83
2018-05-02T12:11:51.281Z,15.87
2018-05-02T12:14:18.925Z,16.07
2018-05-02T12:16:46.507Z,16.23
2018-05-02T12:19:14.136Z,16.09
2018-05-02T12:21:41.689Z,16.13
2018-05-02T12:24:09.212Z,16.15
2018-05-02T12:26:36.770Z,16.14
2018-05-02T12:29:04.296Z,16.29
2018-05-02T12:31:31.847Z,16.45
2018-05-02T12:33:59.368Z,16.26
2018-05-02T12:36:27.249Z,15.87
2018-05-02T12:38:54.778Z,15.97
2018-05-02T12:41:22.608Z,16.15
2018-05-02T12:43:50.157Z,16.11
2018-05-02T12:46:17.827Z,16.33
2018-05-02T12:48:45.386Z,16.09
2018-05-02T12:51:12.941Z,16.22
2018-05-02T12:53:40.965Z,16.29
2018-05-02T12:56:08.688Z,16.32
2018-05-02T12:58:36.219Z,16.55
2018-05-02T13:01:04.898Z,16.23
2018-05-02T13:03:36.570Z,16.17
2018-05-02T13:06:08.022Z,16.36
2018-05-02T13:08:35.638Z,16.29
2018-05-02T13:11:05.461Z,16.32
2018-05-02T13:13:33.234Z,16.23
2018-05-02T13:16:00.801Z,16.54
2018-05-02T13:18:28.736Z,16.57
2018-05-02T13:20:56.342Z,16.50
2018-05-02T13:23:24.579Z,16.59
2018-05-02T13:25:52.268Z,16.74
2018-05-02T13:28:19.799Z,16.83
2018-05-02T13:30:47.373Z,16.92
2018-05-02T13:33:14.993Z,16.97
2018-05-02T13:35:42.608Z,16.84
2018-05-02T13:38:11.585Z,16.90
2018-05-02T13:40:39.707Z,17.02
2018-05-02T13:43:07.335Z,17.22
2018-05-02T13:45:34.890Z,17.25
2018-05-02T13:48:02.432Z,17.37
2018-05-02T13:50:29.965Z,17.19
2018-05-02T13:53:01.688Z,17.34
2018-05-02T13:55:31.302Z,17.43
2018-05-02T13:57:59.350Z,17.53
2018-05-02T14:00:28.294Z,17.27
2018-05-02T14:02:56.081Z,16.77
2018-05-02T14:05:28.209Z,17.02
2018-05-02T14:07:57.135Z,16.98
2018-05-02T14:10:27.058Z,17.27
2018-05-02T14:12:55.251Z,17.12
2018-05-02T14:15:23.057Z,17.44
2018-05-02T14:17:51.091Z,17.19
2018-05-02T14:20:19.118Z,17.05
2018-05-02T14:22:47.129Z,16.77
2018-05-02T14:25:15.752Z,16.82
2018-05-02T14:27:47.002Z,16.80
2018-05-02T14:30:18.019Z,16.85
2018-05-02T14:32:45.917Z,17.03
2018-05-02T14:35:14.161Z,16.94
2018-05-02T14:37:42.537Z,17.14
2018-05-02T14:40:11.661Z,17.07
2018-05-02T14:42:39.242Z,17.06
2018-05-02T14:45:07.067Z,16.97
2018-05-02T14:47:36.238Z,16.76
2018-05-02T14:50:04.424Z,16.98
2018-05-02T14:52:31.977Z,16.88
2018-05-02T14:55:02.107Z,16.97
2018-05-02T14:57:29.958Z,16.84
2018-05-02T14:59:57.551Z,16.69
2018-05-02T15:02:25.690Z,16.88
2018-05-02T15:04:53.235Z,16.80
2018-05-02T15:07:23.388Z,16.75
2018-05-02T15:09:51.445Z,16.78
2018-05-02T15:12:20.172Z,17.15
2018-05-02T15:14:48.102Z,17.29
2018-05-02T15:17:16.792Z,17.03
2018-05-02T15:19:44.427Z,16.80
2018-05-02T15:22:12.328Z,16.74
2018-05-02T15:24:40.271Z,16.51
2018-05-02T15:27:08.162Z,16.78
2018-05-02T15:29:35.881Z,16.96
2018-05-02T15:32:04.909Z,16.61
2018-05-02T15:34:32.589Z,16.39
2018-05-02T15:37:04.843Z,16.46
2018-05-02T15:39:32.642Z,16.48
2018-05-02T15:42:01.977Z,16.43
2018-05-02T15:44:30.083Z,16.53
2018-05-02T15:46:59.174Z,16.29
2018-05-02T15:49:28.501Z,16.52
2018-05-02T15:51:57.033Z,16.36
2018-05-02T15:54:26.659Z,16.19
2018-05-02T15:56:54.417Z,16.40
2018-05-02T15:59:22.053Z,16.40
2018-05-02T16:01:50.644Z,16.26
2018-05-02T16:04:18.741Z,16.33
2018-05-02T16:06:46.291Z,16.33
2018-05-02T16:09:14.570Z,16.50
2018-05-02T16:11:43.876Z,16.34
2018-05-02T16:14:12.070Z,16.44
2018-05-02T16:16:39.621Z,16.32
2018-05-02T16:19:07.703Z,16.24
2018-05-02T16:21:35.330Z,16.33
2018-05-02T16:24:03.403Z,16.39
2018-05-02T16:26:31.285Z,16.37
2018-05-02T16:29:01.586Z,16.27
2018-05-02T16:31:29.537Z,16.18
2018-05-02T16:33:58.974Z,16.26
2018-05-02T16:36:30.138Z,16.11
2018-05-02T16:38:58.048Z,16.10
2018-05-02T16:41:25.709Z,16.04
2018-05-02T16:43:54.646Z,16.01
2018-05-02T16:46:25.079Z,16.02
2018-05-02T16:48:52.654Z,15.94
2018-05-02T16:51:20.283Z,15.98
2018-05-02T16:53:48.430Z,15.87
2018-05-02T16:56:16.664Z,15.93
2018-05-02T16:58:44.489Z,15.86
2018-05-02T17:01:12.063Z,15.81
2018-05-02T17:03:39.697Z,15.72
2018-05-02T17:06:10.297Z,15.55
2018-05-02T17:08:40.336Z,15.48
2018-05-02T17:11:08.165Z,15.52
2018-05-02T17:13:38.307Z,15.51
2018-05-02T17:16:08.622Z,15.34
2018-05-02T17:18:38.629Z,15.33
2018-05-02T17:21:09.562Z,15.45
2018-05-02T17:23:39.142Z,15.41
2018-05-02T17:26:07.123Z,15.38
2018-05-02T17:28:36.919Z,15.32
2018-05-02T17:31:06.301Z,15.34
2018-05-02T17:33:34.821Z,15.18
2018-05-02T17:36:05.820Z,15.21
2018-05-02T17:38:36.879Z,15.06
2018-05-02T17:41:05.226Z,14.94
2018-05-02T17:43:35.229Z,14.85
2018-05-02T17:46:05.757Z,14.84
2018-05-02T17:48:33.785Z,14.73
2018-05-02T17:51:04.686Z,14.69
2018-05-02T17:53:36.274Z,14.62
2018-05-02T17:56:04.892Z,14.56
2018-05-02T17:58:37.760Z,14.50
2018-05-02T18:01:06.118Z,14.54
2018-05-02T18:03:33.893Z,14.46
2018-05-02T18:06:05.712Z,14.10
2018-05-02T18:08:34.327Z,14.27
2018-05-02T18:11:03.857Z,13.84
2018-05-02T18:13:34.761Z,13.93
2018-05-02T18:16:04.182Z,13.97
2018-05-02T18:18:32.535Z,13.92
2018-05-02T18:21:01.039Z,13.99
2018-05-02T18:23:30.161Z,13.95
2018-05-02T18:25:58.892Z,13.87
2018-05-02T18:28:26.422Z,13.66
2018-05-02T18:30:54.097Z,13.71
2018-05-02T18:33:24.321Z,13.70
2018-05-02T18:35:52.031Z,13.56
2018-05-02T18:38:20.775Z,13.37
2018-05-02T18:40:48.683Z,13.42
2018-05-02T18:43:16.858Z,13.39
2018-05-02T18:45:44.836Z,13.30
2018-05-02T18:48:12.840Z,13.34
2018-05-02T18:50:40.486Z,13.30
2018-05-02T18:53:08.426Z,13.19
2018-05-02T18:55:36.048Z,13.01
2018-05-02T18:58:03.800Z,13.11
2018-05-02T19:00:31.404Z,12.98
2018-05-02T19:02:58.964Z,13.00
2018-05-02T19:05:26.920Z,12.83
2018-05-02T19:07:54.709Z,12.80
2018-05-02T19:10:22.311Z,12.74
2018-05-02T19:12:49.837Z,12.74
2018-05-02T19:15:17.419Z,12.62
2018-05-02T19:17:50.619Z,12.35
2018-05-02T19:20:23.770Z,12.59
2018-05-02T19:22:51.293Z,12.52
2018-05-02T19:25:24.397Z,12.55
2018-05-02T19:27:51.925Z,12.58
2018-05-02T19:30:19.529Z,12.43
2018-05-02T19:32:53.035Z,12.39
2018-05-02T19:35:20.686Z,12.35
2018-05-02T19:37:48.202Z,12.28
2018-05-02T19:40:21.362Z,12.14
2018-05-02T19:45:50.962Z,12.05
2018-05-02T19:48:18.543Z,11.84
2018-05-02T19:50:51.713Z,11.87
2018-05-02T19:53:19.273Z,11.52
2018-05-02T19:55:47.426Z,11.55
2018-05-02T19:58:15.007Z,11.58
2018-05-02T20:00:48.235Z,11.72
2018-05-02T20:03:15.753Z,11.77
2018-05-02T20:05:43.835Z,11.63
2018-05-02T20:08:17.025Z,11.69
2018-05-02T20:13:53.589Z,11.52
2018-05-02T20:16:21.470Z,11.51
2018-05-02T20:18:48.998Z,11.54
2018-05-02T20:21:17.492Z,11.42
2018-05-02T20:23:45.022Z,11.35
2018-05-02T20:26:12.577Z,11.28
2018-05-02T20:28:40.185Z,11.43
2018-05-02T20:31:07.751Z,11.38
2018-05-02T20:33:35.291Z,11.23
2018-05-02T20:36:07.441Z,11.24
2018-05-02T20:38:36.456Z,11.02
2018-05-02T20:41:04.041Z,11.20
2018-05-02T20:43:34.153Z,11.22
2018-05-02T20:46:01.919Z,11.20
2018-05-02T20:48:29.449Z,10.87
2018-05-02T20:50:57.000Z,11.07
2018-05-02T20:53:24.603Z,11.04
2018-05-02T20:55:52.131Z,11.12
2018-05-02T20:58:19.715Z,11.09
2018-05-02T21:00:47.633Z,11.08
2018-05-02T21:03:15.215Z,11.03
2018-05-02T21:05:42.741Z,11.09
2018-05-02T21:08:10.289Z,10.96
2018-05-02T21:10:37.815Z,10.97
2018-05-02T21:13:05.374Z,11.02
2018-05-02T21:15:32.897Z,10.82
2018-05-02T21:18:02.625Z,10.65
2018-05-02T21:20:30.148Z,10.78
2018-05-02T21:22:57.769Z,10.81
2018-05-02T21:25:25.286Z,10.66
2018-05-02T21:27:52.834Z,10.59
2018-05-02T21:30:20.386Z,10.65
2018-05-02T21:32:48.090Z,10.65
2018-05-02T21:35:15.614Z,10.64
2018-05-02T21:37:43.195Z,10.53
2018-05-02T21:40:10.722Z,10.50
2018-05-02T21:42:38.353Z,10.43
2018-05-02T21:45:05.925Z,10.48
2018-05-02T21:47:33.480Z,10.51
2018-05-02T21:50:01.006Z,10.39
2018-05-02T21:52:29.588Z,10.45
2018-05-02T21:54:57.186Z,10.52
2018-05-02T21:57:24.763Z,10.29
2018-05-02T21:59:52.314Z,10.25
2018-05-02T22:02:19.941Z,10.43
2018-05-02T22:04:48.193Z,10.29
2018-05-02T22:07:16.091Z,10.25
2018-05-02T22:09:43.769Z,10.25
2018-05-02T22:12:11.478Z,10.26
2018-05-02T22:14:39.105Z,10.29
2018-05-02T22:17:06.761Z,10.25
2018-05-02T22:19:34.805Z,10.21
2018-05-02T22:22:02.584Z,10.13
2018-05-02T22:24:30.238Z,10.18
2018-05-02T22:26:58.038Z,10.09
2018-05-02T22:29:25.618Z,10.04
2018-05-02T22:31:53.242Z,10.12
2018-05-02T22:34:20.889Z,10.02
2018-05-02T22:36:48.548Z,10.11
2018-05-02T22:39:17.248Z,10.02
2018-05-02T22:41:44.903Z,10.16
2018-05-02T22:44:12.660Z,10.03
2018-05-02T22:46:40.234Z,9.73
2018-05-02T22:49:07.885Z,9.84
2018-05-02T22:51:35.438Z,9.96
2018-05-02T22:54:03.313Z,10.03
2018-05-02T22:56:30.912Z,9.98
2018-05-02T22:58:58.541Z,9.95
2018-05-02T23:01:26.240Z,9.85
2018-05-02T23:03:53.936Z,9.80
2018-05-02T23:06:21.597Z,9.83
2018-05-02T23:08:49.271Z,9.80
2018-05-02T23:11:17.249Z,9.92
2018-05-02T23:13:44.912Z,9.78
2018-05-02T23:16:12.586Z,9.74
2018-05-02T23:18:40.109Z,9.71
2018-05-02T23:21:07.661Z,9.75
2018-05-02T23:23:35.210Z,9.67
2018-05-02T23:26:02.810Z,9.78
2018-05-02T23:28:30.370Z,9.64
2018-05-02T23:30:57.914Z,9.65
2018-05-02T23:33:25.422Z,9.63
2018-05-02T23:35:52.974Z,9.67
2018-05-02T23:38:20.613Z,9.51
2018-05-02T23:40:48.554Z,9.56
2018-05-02T23:43:16.081Z,9.54
2018-05-02T23:45:43.639Z,9.39
2018-05-02T23:48:11.159Z,9.42
2018-05-02T23:50:38.718Z,9.26
2018-05-02T23:53:06.266Z,9.46
2018-05-02T23:55:33.819Z,9.50
2018-05-02T23:58:01.394Z,9.38
